createdAt,value
2022-08-07T00:00:12.538Z,20.85
2022-08-07T00:01:44.069Z,21.80
2022-08-07T00:03:11.585Z,21.92
2022-08-07T00:04:18.949Z,21.60
2022-08-07T00:05:32.549Z,21.77
2022-08-07T00:06:51.614Z,21.73
2022-08-07T00:08:02.176Z,22.03
2022-08-07T00:09:16.761Z,21.43
2022-08-07T00:10:30.856Z,21.13
2022-08-07T00:11:47.764Z,21.02
2022-08-07T00:13:24.054Z,21.07
2022-08-07T00:14:33.373Z,21.87
2022-08-07T00:15:46.789Z,22.10
2022-08-07T00:17:03.019Z,22.17
2022-08-07T00:18:19.730Z,22.51
2022-08-07T00:19:34.247Z,21.82
2022-08-07T00:21:08.285Z,21.90
2022-08-07T00:22:34.954Z,21.90
2022-08-07T00:23:45.507Z,21.87
2022-08-07T00:24:54.052Z,22.01
2022-08-07T00:26:13.167Z,22.19
2022-08-07T00:27:51.750Z,22.48
2022-08-07T00:29:03.126Z,22.58
2022-08-07T00:30:21.551Z,22.92
2022-08-07T00:31:38.186Z,23.25
2022-08-07T00:32:52.165Z,23.81
2022-08-07T00:34:02.312Z,24.02
2022-08-07T00:35:10.554Z,24.25
2022-08-07T00:36:17.413Z,24.27
2022-08-07T00:37:26.269Z,24.12
2022-08-07T00:38:50.487Z,24.01
2022-08-07T00:39:58.403Z,24.04
2022-08-07T00:41:10.023Z,24.01
2022-08-07T00:42:29.025Z,24.08
2022-08-07T00:44:00.627Z,23.97
2022-08-07T00:45:08.535Z,23.87
2022-08-07T00:46:24.583Z,23.78
2022-08-07T00:48:09.548Z,23.71
2022-08-07T00:49:02.703Z,22.93
2022-08-07T00:50:19.249Z,22.65
2022-08-07T00:51:58.540Z,22.80
2022-08-07T00:53:06.673Z,22.04
2022-08-07T00:54:19.892Z,21.96
2022-08-07T00:56:00.584Z,21.65
2022-08-07T00:56:58.495Z,21.84
2022-08-07T00:58:05.543Z,21.82
2022-08-07T00:59:12.062Z,21.61
2022-08-07T01:00:22.820Z,21.59
2022-08-07T01:01:43.975Z,21.58
2022-08-07T01:02:54.140Z,21.53
2022-08-07T01:04:09.016Z,21.02
2022-08-07T01:05:19.019Z,20.64
2022-08-07T01:06:29.633Z,20.46
2022-08-07T01:07:37.493Z,20.54
2022-08-07T01:08:53.328Z,20.54
2022-08-07T01:10:04.374Z,20.62
2022-08-07T01:12:10.139Z,20.42
2022-08-07T01:12:53.851Z,20.42
2022-08-07T01:14:03.486Z,20.54
2022-08-07T01:15:12.054Z,20.50
2022-08-07T01:16:30.486Z,20.31
2022-08-07T01:17:41.140Z,20.26
2022-08-07T01:18:49.417Z,20.34
2022-08-07T01:20:05.667Z,20.36
2022-08-07T01:21:22.843Z,20.16
2022-08-07T01:22:37.562Z,20.20
2022-08-07T01:23:58.914Z,19.96
2022-08-07T01:25:53.830Z,19.77
2022-08-07T01:26:35.286Z,19.81
2022-08-07T01:27:51.165Z,19.82
2022-08-07T01:29:02.696Z,19.66
2022-08-07T01:30:14.449Z,19.68
2022-08-07T01:31:42.881Z,19.81
2022-08-07T01:32:55.535Z,19.53
2022-08-07T01:34:08.925Z,19.52
2022-08-07T01:35:20.372Z,19.77
2022-08-07T01:36:33.754Z,19.90
2022-08-07T01:37:45.515Z,19.89
2022-08-07T01:38:53.371Z,19.98
2022-08-07T01:40:14.791Z,20.04
2022-08-07T01:41:34.925Z,20.00
2022-08-07T01:42:58.553Z,20.02
2022-08-07T01:44:13.328Z,20.11
2022-08-07T01:45:36.233Z,20.28
2022-08-07T01:46:57.365Z,20.45
2022-08-07T01:48:20.924Z,20.49
2022-08-07T01:49:39.503Z,20.54
2022-08-07T01:50:51.292Z,20.78
2022-08-07T01:52:11.102Z,20.96
2022-08-07T01:54:09.666Z,21.05
2022-08-07T01:54:53.046Z,21.14
2022-08-07T01:56:08.132Z,21.26
2022-08-07T01:57:25.574Z,21.43
2022-08-07T01:58:40.136Z,21.61
2022-08-07T02:00:12.904Z,21.56
2022-08-07T02:01:59.698Z,21.91
2022-08-07T02:03:18.803Z,22.01
2022-08-07T02:04:52.580Z,22.11
2022-08-07T02:06:31.396Z,22.22
2022-08-07T02:08:10.705Z,22.48
2022-08-07T02:09:52.326Z,22.77
2022-08-07T02:10:55.466Z,22.96
2022-08-07T02:12:18.632Z,23.17
2022-08-07T02:13:56.863Z,23.33
2022-08-07T02:15:00.902Z,23.71
2022-08-07T02:16:29.903Z,23.87
2022-08-07T02:17:49.527Z,24.21
2022-08-07T02:19:05.368Z,24.24
2022-08-07T02:20:33.032Z,24.70
2022-08-07T02:21:55.592Z,25.25
2022-08-07T02:23:06.722Z,25.61
2022-08-07T02:24:17.920Z,25.70
2022-08-07T02:25:32.113Z,25.78
2022-08-07T02:26:55.749Z,25.76
2022-08-07T02:28:11.378Z,25.88
2022-08-07T02:29:18.917Z,25.94
2022-08-07T02:30:30.763Z,25.89
2022-08-07T02:31:39.098Z,26.37
2022-08-07T02:33:00.387Z,26.61
2022-08-07T02:34:17.357Z,26.94
2022-08-07T02:36:30.820Z,27.21
2022-08-07T02:36:59.497Z,27.43
2022-08-07T02:38:09.322Z,27.69
2022-08-07T02:39:43.145Z,27.94
2022-08-07T02:40:55.519Z,28.22
2022-08-07T02:42:10.297Z,28.37
2022-08-07T02:43:23.888Z,28.66
2022-08-07T02:44:34.700Z,28.77
2022-08-07T02:45:58.209Z,28.91
2022-08-07T02:47:19.939Z,29.03
2022-08-07T02:48:47.077Z,29.28
2022-08-07T02:50:05.206Z,29.43
2022-08-07T02:51:42.768Z,29.51
2022-08-07T02:53:06.439Z,29.45
2022-08-07T02:54:15.522Z,29.67
2022-08-07T02:56:03.153Z,29.71
2022-08-07T02:56:58.204Z,29.93
2022-08-07T02:58:12.289Z,29.91
2022-08-07T02:59:24.194Z,30.06
2022-08-07T03:00:41.118Z,29.97
2022-08-07T03:01:57.669Z,29.99
2022-08-07T03:03:13.467Z,29.95
2022-08-07T03:04:22.890Z,29.86
2022-08-07T03:05:38.112Z,30.12
2022-08-07T03:06:48.549Z,30.27
2022-08-07T03:08:04.947Z,30.20
2022-08-07T03:09:42.265Z,30.15
2022-08-07T03:10:52.297Z,30.25
2022-08-07T03:12:19.175Z,30.29
2022-08-07T03:13:39.275Z,30.19
2022-08-07T03:15:02.472Z,30.07
2022-08-07T03:16:17.324Z,30.18
2022-08-07T03:17:27.543Z,30.45
2022-08-07T03:18:39.552Z,30.41
2022-08-07T03:19:55.149Z,30.49
2022-08-07T03:21:08.676Z,30.50
2022-08-07T03:22:24.141Z,30.58
2022-08-07T03:24:20.341Z,30.46
2022-08-07T03:25:10.325Z,30.66
2022-08-07T03:26:23.762Z,30.59
2022-08-07T03:27:41.994Z,30.83
2022-08-07T03:29:02.702Z,30.84
2022-08-07T03:30:12.931Z,30.81
2022-08-07T03:31:26.127Z,30.69
2022-08-07T03:32:58.519Z,30.81
2022-08-07T03:34:10.559Z,30.97
2022-08-07T03:35:38.008Z,30.82
2022-08-07T03:36:54.995Z,30.90
2022-08-07T03:38:29.937Z,31.08
2022-08-07T03:39:59.133Z,31.14
2022-08-07T03:41:11.496Z,31.59
2022-08-07T03:42:20.046Z,31.61
2022-08-07T03:43:32.394Z,31.54
2022-08-07T03:44:41.653Z,31.58
2022-08-07T03:45:48.859Z,31.56
2022-08-07T03:47:13.362Z,31.59
2022-08-07T03:48:25.870Z,31.92
2022-08-07T03:49:34.450Z,31.88
2022-08-07T03:50:56.214Z,31.86
2022-08-07T03:52:22.964Z,32.06
2022-08-07T03:54:05.915Z,31.98
2022-08-07T03:55:08.502Z,32.15
2022-08-07T03:56:33.073Z,32.04
2022-08-07T03:58:08.819Z,32.07
2022-08-07T03:59:16.665Z,32.20
2022-08-07T04:00:30.677Z,32.20
2022-08-07T04:01:45.851Z,32.15
2022-08-07T04:02:56.992Z,32.07
2022-08-07T04:04:10.779Z,32.19
2022-08-07T04:05:41.037Z,32.34
2022-08-07T04:07:01.873Z,32.17
2022-08-07T04:08:29.662Z,32.06
2022-08-07T04:09:44.658Z,32.09
2022-08-07T04:12:23.724Z,32.06
2022-08-07T04:12:32.657Z,31.91
2022-08-07T04:14:10.705Z,31.96
2022-08-07T04:15:11.948Z,31.99
2022-08-07T04:16:30.210Z,32.18
2022-08-07T04:18:30.838Z,32.15
2022-08-07T04:19:15.094Z,32.13
2022-08-07T04:20:30.900Z,32.23
2022-08-07T04:21:39.219Z,32.22
2022-08-07T04:23:01.455Z,32.14
2022-08-07T04:24:30.776Z,32.27
2022-08-07T04:25:43.914Z,32.28
2022-08-07T04:26:52.545Z,32.31
2022-08-07T04:28:02.631Z,32.37
2022-08-07T04:29:11.175Z,32.67
2022-08-07T04:30:21.558Z,32.64
2022-08-07T04:32:03.281Z,32.89
2022-08-07T04:33:18.425Z,32.99
2022-08-07T04:34:33.389Z,32.88
2022-08-07T04:35:50.459Z,32.86
2022-08-07T04:37:02.426Z,32.95
2022-08-07T04:38:17.083Z,33.06
2022-08-07T04:39:26.419Z,33.04
2022-08-07T04:40:34.345Z,33.17
2022-08-07T04:41:42.472Z,33.38
2022-08-07T04:43:01.827Z,33.23
2022-08-07T04:44:18.596Z,33.58
2022-08-07T04:45:57.217Z,33.41
2022-08-07T04:47:08.951Z,33.32
2022-08-07T04:48:36.841Z,33.25
2022-08-07T04:50:05.537Z,33.42
2022-08-07T04:51:56.205Z,33.61
2022-08-07T04:54:01.661Z,33.49
2022-08-07T04:58:07.923Z,33.49
2022-08-07T04:58:12.968Z,33.62
2022-08-07T04:59:07.755Z,33.64
2022-08-07T05:00:18.848Z,33.77
2022-08-07T05:01:46.762Z,33.93
2022-08-07T05:03:31.251Z,34.10
2022-08-07T05:05:00.507Z,34.19
2022-08-07T05:06:19.529Z,33.90
2022-08-07T05:07:37.021Z,34.01
2022-08-07T05:09:10.919Z,34.45
2022-08-07T05:10:26.787Z,34.68
2022-08-07T05:11:58.475Z,34.75
2022-08-07T05:14:54.374Z,34.86
2022-08-07T05:15:03.449Z,34.69
2022-08-07T05:16:16.978Z,34.63
2022-08-07T05:18:00.761Z,34.61
2022-08-07T05:19:01.109Z,34.75
2022-08-07T05:20:12.846Z,34.87
2022-08-07T05:21:25.288Z,35.00
2022-08-07T05:22:52.029Z,35.12
2022-08-07T05:24:03.385Z,35.24
2022-08-07T05:25:11.556Z,35.44
2022-08-07T05:26:24.135Z,35.31
2022-08-07T05:28:02.081Z,35.33
2022-08-07T05:29:11.138Z,35.33
2022-08-07T05:30:30.253Z,35.39
2022-08-07T05:31:51.243Z,35.44
2022-08-07T05:33:05.842Z,35.61
2022-08-07T05:34:15.750Z,35.68
2022-08-07T05:35:33.879Z,35.76
2022-08-07T05:37:05.695Z,35.90
2022-08-07T05:38:59.451Z,35.82
2022-08-07T05:40:05.054Z,35.74
2022-08-07T05:41:18.278Z,35.73
2022-08-07T05:42:34.508Z,35.79
2022-08-07T05:44:08.805Z,35.88
2022-08-07T05:45:26.088Z,35.85
2022-08-07T05:46:44.042Z,35.92
2022-08-07T05:48:01.596Z,35.75
2022-08-07T05:49:40.436Z,35.61
2022-08-07T05:50:50.752Z,35.75
2022-08-07T05:52:00.066Z,35.69
2022-08-07T05:53:08.264Z,35.65
2022-08-07T05:54:53.586Z,35.61
2022-08-07T05:56:06.115Z,35.80
2022-08-07T05:57:19.418Z,36.00
2022-08-07T05:58:28.859Z,36.14
2022-08-07T05:59:57.082Z,36.52
2022-08-07T06:01:10.951Z,36.49
2022-08-07T06:02:28.825Z,36.37
2022-08-07T06:03:56.813Z,36.49
2022-08-07T06:05:10.796Z,36.52
2022-08-07T06:06:18.898Z,36.87
2022-08-07T06:08:13.648Z,36.69
2022-08-07T06:08:58.392Z,36.90
2022-08-07T06:10:07.177Z,37.06
2022-08-07T06:11:26.340Z,37.33
2022-08-07T06:12:34.784Z,37.44
2022-08-07T06:14:12.338Z,37.65
2022-08-07T06:15:15.266Z,37.60
2022-08-07T06:16:25.806Z,37.67
2022-08-07T06:17:41.224Z,37.65
2022-08-07T06:19:03.792Z,37.68
2022-08-07T06:20:32.059Z,37.70
2022-08-07T06:22:16.309Z,37.58
2022-08-07T06:23:45.799Z,37.52
2022-08-07T06:24:52.954Z,37.72
2022-08-07T06:26:14.210Z,37.65
2022-08-07T06:28:00.456Z,37.67
2022-08-07T06:29:01.680Z,37.87
2022-08-07T06:30:32.453Z,38.10
2022-08-07T06:31:50.493Z,38.25
2022-08-07T06:32:59.678Z,38.59
2022-08-07T06:34:07.597Z,38.96
2022-08-07T06:35:17.786Z,39.14
2022-08-07T06:36:34.874Z,38.94
2022-08-07T06:37:45.968Z,38.89
2022-08-07T06:40:12.618Z,38.97
2022-08-07T06:40:23.430Z,39.22
2022-08-07T06:42:01.029Z,39.12
2022-08-07T06:43:22.560Z,39.08
2022-08-07T06:44:45.535Z,39.22
2022-08-07T06:46:00.280Z,39.14
2022-08-07T06:47:12.271Z,39.26
2022-08-07T06:48:25.150Z,39.30
2022-08-07T06:49:33.449Z,39.41
2022-08-07T06:51:07.868Z,39.80
2022-08-07T06:52:16.050Z,40.08
2022-08-07T06:54:12.047Z,39.90
2022-08-07T06:55:31.894Z,39.73
2022-08-07T06:56:49.691Z,39.81
2022-08-07T06:58:10.503Z,39.72
2022-08-07T07:00:14.775Z,39.90
2022-08-07T07:01:05.330Z,40.00
2022-08-07T07:02:26.936Z,40.06
2022-08-07T07:03:55.098Z,40.29
2022-08-07T07:05:13.257Z,40.22
2022-08-07T07:07:00.462Z,40.42
2022-08-07T07:08:10.027Z,40.74
2022-08-07T07:09:31.663Z,40.77
2022-08-07T07:10:38.147Z,40.78
2022-08-07T07:12:19.824Z,40.94
2022-08-07T07:13:55.765Z,41.20
2022-08-07T07:15:26.218Z,41.16
2022-08-07T07:16:49.669Z,41.20
2022-08-07T07:18:48.179Z,41.35
2022-08-07T07:19:59.174Z,41.39
2022-08-07T07:22:04.108Z,41.52
2022-08-07T07:24:08.348Z,41.63
2022-08-07T07:24:32.077Z,41.53
2022-08-07T07:26:35.580Z,41.41
2022-08-07T07:27:10.752Z,41.73
2022-08-07T07:28:48.704Z,42.04
2022-08-07T07:30:09.924Z,42.42
2022-08-07T07:31:39.802Z,42.48
2022-08-07T07:32:51.530Z,42.23
2022-08-07T07:34:06.009Z,42.22
2022-08-07T07:35:13.430Z,42.34
2022-08-07T07:36:19.239Z,42.25
2022-08-07T07:37:47.194Z,42.44
2022-08-07T07:38:57.500Z,42.34
2022-08-07T07:40:14.801Z,42.27
2022-08-07T07:41:24.553Z,42.29
2022-08-07T07:42:54.406Z,42.36
2022-08-07T07:44:17.683Z,42.35
2022-08-07T07:46:40.373Z,42.66
2022-08-07T07:47:15.988Z,42.51
2022-08-07T07:48:36.122Z,42.68
2022-08-07T07:50:34.215Z,42.88
2022-08-07T07:51:15.433Z,42.89
2022-08-07T07:52:23.554Z,43.14
2022-08-07T07:53:34.972Z,43.32
2022-08-07T07:54:51.193Z,43.44
2022-08-07T07:56:01.358Z,43.61
2022-08-07T07:57:08.382Z,43.87
2022-08-07T07:58:18.598Z,43.96
2022-08-07T07:59:52.512Z,43.92
2022-08-07T08:00:55.963Z,43.87
2022-08-07T08:02:10.409Z,44.03
2022-08-07T08:04:10.435Z,44.02
2022-08-07T08:04:50.101Z,44.00
2022-08-07T08:05:57.823Z,44.08
2022-08-07T08:07:07.626Z,44.00
2022-08-07T08:08:34.236Z,44.07
2022-08-07T08:09:52.205Z,44.28
2022-08-07T08:11:16.206Z,44.71
2022-08-07T08:12:51.548Z,44.78
2022-08-07T08:13:57.449Z,44.62
2022-08-07T08:15:06.810Z,44.46
2022-08-07T08:16:18.486Z,44.43
2022-08-07T08:17:57.160Z,44.40
2022-08-07T08:18:57.132Z,44.39
2022-08-07T08:20:22.282Z,44.32
2022-08-07T08:21:56.014Z,44.30
2022-08-07T08:23:29.323Z,44.30
2022-08-07T08:25:09.386Z,44.11
2022-08-07T08:26:51.879Z,43.94
2022-08-07T08:28:03.999Z,43.95
2022-08-07T08:29:11.304Z,44.10
2022-08-07T08:30:19.719Z,44.30
2022-08-07T08:32:16.975Z,44.50
2022-08-07T08:33:15.230Z,44.22
2022-08-07T08:34:27.050Z,44.32
2022-08-07T08:35:46.986Z,44.48
2022-08-07T08:36:58.863Z,44.29
2022-08-07T08:38:06.743Z,44.15
2022-08-07T08:39:16.535Z,44.20
2022-08-07T08:40:52.271Z,44.28
2022-08-07T08:42:06.325Z,44.14
2022-08-07T08:43:18.028Z,44.26
2022-08-07T08:44:49.647Z,44.21
2022-08-07T08:46:08.228Z,44.30
2022-08-07T08:47:54.762Z,44.42
2022-08-07T08:50:04.636Z,44.43
2022-08-07T08:52:14.032Z,44.15
2022-08-07T08:53:39.058Z,44.25
2022-08-07T08:55:54.808Z,44.33
2022-08-07T08:56:53.238Z,44.46
2022-08-07T08:58:03.553Z,44.84
2022-08-07T08:59:27.836Z,44.84
2022-08-07T09:00:42.562Z,44.72
2022-08-07T09:02:02.100Z,45.52
2022-08-07T09:03:47.364Z,46.18
2022-08-07T09:05:15.116Z,46.45
2022-08-07T09:07:15.593Z,46.89
2022-08-07T09:08:46.917Z,46.74
2022-08-07T09:10:29.982Z,47.00
2022-08-07T09:12:20.006Z,46.86
2022-08-07T09:13:44.610Z,47.32
2022-08-07T09:16:25.688Z,47.33
2022-08-07T09:17:13.655Z,47.63
2022-08-07T09:19:07.136Z,47.47
2022-08-07T09:21:13.769Z,47.59
2022-08-07T09:24:33.531Z,47.40
2022-08-07T09:24:58.948Z,47.25
2022-08-07T09:26:39.112Z,47.34
2022-08-07T09:30:00.909Z,47.46
2022-08-07T09:30:09.171Z,47.32
2022-08-07T09:31:21.771Z,48.05
2022-08-07T09:32:46.280Z,48.01
2022-08-07T09:34:42.413Z,48.01
2022-08-07T09:36:12.714Z,47.68
2022-08-07T09:38:00.761Z,47.67
2022-08-07T09:39:54.421Z,47.85
2022-08-07T09:41:58.417Z,47.85
2022-08-07T09:44:03.127Z,47.88
2022-08-07T09:47:27.797Z,48.02
2022-08-07T09:47:52.780Z,48.07
2022-08-07T09:50:02.654Z,48.23
2022-08-07T09:51:00.225Z,48.39
2022-08-07T09:52:33.261Z,48.31
2022-08-07T09:53:48.903Z,48.10
2022-08-07T09:56:04.011Z,48.36
2022-08-07T09:57:46.299Z,48.30
2022-08-07T09:59:18.844Z,48.15
2022-08-07T10:00:33.665Z,48.39
2022-08-07T10:01:54.459Z,48.29
2022-08-07T10:04:06.621Z,48.53
2022-08-07T10:04:45.966Z,48.78
2022-08-07T10:06:10.546Z,48.73
2022-08-07T10:07:57.545Z,48.52
2022-08-07T10:09:16.070Z,48.95
2022-08-07T10:12:52.786Z,49.16
2022-08-07T10:14:11.717Z,49.86
2022-08-07T10:15:52.874Z,50.38
2022-08-07T10:18:02.508Z,50.85
2022-08-07T10:19:38.639Z,51.04
2022-08-07T10:22:12.231Z,50.69
2022-08-07T10:24:06.442Z,51.47
2022-08-07T10:25:42.343Z,51.43
2022-08-07T10:27:00.157Z,51.26
2022-08-07T10:28:12.763Z,51.28
2022-08-07T10:29:30.487Z,51.51
2022-08-07T10:30:58.771Z,52.05
2022-08-07T10:32:51.419Z,52.66
2022-08-07T10:34:17.786Z,52.94
2022-08-07T10:36:05.447Z,52.31
2022-08-07T10:38:00.213Z,52.05
2022-08-07T10:39:42.088Z,51.72
2022-08-07T10:41:46.937Z,51.46
2022-08-07T10:43:34.159Z,51.20
2022-08-07T10:45:19.427Z,51.11
2022-08-07T10:46:38.064Z,51.17
2022-08-07T10:48:21.005Z,51.21
2022-08-07T10:49:51.763Z,51.09
2022-08-07T10:51:16.965Z,51.14
2022-08-07T10:53:21.580Z,51.16
2022-08-07T10:54:53.537Z,51.44
2022-08-07T10:56:33.695Z,51.40
2022-08-07T10:57:45.147Z,51.40
2022-08-07T10:59:49.469Z,51.42
2022-08-07T11:01:23.551Z,51.54
2022-08-07T11:02:49.119Z,51.78
2022-08-07T11:04:16.953Z,51.61
2022-08-07T11:05:44.810Z,51.50
2022-08-07T11:07:59.565Z,51.40
2022-08-07T11:10:07.840Z,51.19
2022-08-07T11:10:57.787Z,51.48
2022-08-07T11:12:31.643Z,52.14
2022-08-07T11:14:45.488Z,52.94
2022-08-07T11:15:31.814Z,53.03
2022-08-07T11:17:07.368Z,52.84
2022-08-07T11:18:27.452Z,52.63
2022-08-07T11:19:41.908Z,52.28
2022-08-07T11:21:07.580Z,51.84
2022-08-07T11:22:54.950Z,51.61
2022-08-07T11:24:08.396Z,51.42
2022-08-07T11:25:30.680Z,51.10
2022-08-07T11:27:13.486Z,51.21
2022-08-07T11:28:44.634Z,51.11
2022-08-07T11:30:10.145Z,50.83
2022-08-07T11:31:51.852Z,50.50
2022-08-07T11:33:02.010Z,50.51
2022-08-07T11:34:22.391Z,50.54
2022-08-07T11:35:35.625Z,50.59
2022-08-07T11:37:58.372Z,51.01
2022-08-07T11:39:39.834Z,50.93
2022-08-07T11:41:02.178Z,51.08
2022-08-07T11:42:29.621Z,50.97
2022-08-07T11:44:10.983Z,51.09
2022-08-07T11:45:53.105Z,51.15
2022-08-07T11:47:26.250Z,51.27
2022-08-07T11:49:50.490Z,51.18
2022-08-07T11:51:41.500Z,51.96
2022-08-07T11:53:29.761Z,52.30
2022-08-07T11:54:57.303Z,52.02
2022-08-07T11:56:27.570Z,52.25
2022-08-07T11:58:00.690Z,52.27
2022-08-07T12:00:10.858Z,52.59
2022-08-07T12:01:25.919Z,52.88
2022-08-07T12:03:44.423Z,53.96
2022-08-07T12:05:41.662Z,54.13
2022-08-07T12:07:27.338Z,54.02
2022-08-07T12:08:38.984Z,54.30
2022-08-07T12:10:05.924Z,54.55
2022-08-07T12:11:43.417Z,54.17
2022-08-07T12:13:37.157Z,53.85
2022-08-07T12:14:56.420Z,53.96
2022-08-07T12:16:15.871Z,53.99
2022-08-07T12:17:59.573Z,54.21
2022-08-07T12:19:35.643Z,54.32
2022-08-07T12:22:36.639Z,54.60
2022-08-07T12:23:09.003Z,54.87
2022-08-07T12:24:37.307Z,55.18
2022-08-07T12:26:05.653Z,55.31
2022-08-07T12:27:28.125Z,55.10
2022-08-07T12:29:01.319Z,55.04
2022-08-07T12:30:12.480Z,54.84
2022-08-07T12:32:03.834Z,54.86
2022-08-07T12:33:28.302Z,54.84
2022-08-07T12:34:38.568Z,54.64
2022-08-07T12:35:48.516Z,54.76
2022-08-07T12:37:08.802Z,55.00
2022-08-07T12:38:36.918Z,55.08
2022-08-07T12:39:51.550Z,55.36
2022-08-07T12:41:00.561Z,55.68
2022-08-07T12:42:08.805Z,55.92
2022-08-07T12:44:01.756Z,55.95
2022-08-07T12:44:50.093Z,56.03
2022-08-07T12:46:34.764Z,55.97
2022-08-07T12:48:28.478Z,55.61
2022-08-07T12:50:34.371Z,55.36
2022-08-07T12:52:14.377Z,55.17
2022-08-07T12:54:02.843Z,55.03
2022-08-07T12:55:41.035Z,55.20
2022-08-07T12:57:05.739Z,55.03
2022-08-07T12:58:17.664Z,54.97
2022-08-07T12:59:53.822Z,54.95
2022-08-07T13:01:32.029Z,54.78
2022-08-07T13:02:55.333Z,54.63
2022-08-07T13:04:09.801Z,54.51
2022-08-07T13:06:03.969Z,54.44
2022-08-07T13:08:14.054Z,54.65
2022-08-07T13:10:18.782Z,55.14
2022-08-07T13:11:01.843Z,55.06
2022-08-07T13:12:51.903Z,54.93
2022-08-07T13:14:14.746Z,54.64
2022-08-07T13:15:39.327Z,54.48
2022-08-07T13:16:50.702Z,54.26
2022-08-07T13:18:08.306Z,54.00
2022-08-07T13:19:53.196Z,53.71
2022-08-07T13:21:51.112Z,53.43
2022-08-07T13:24:00.578Z,53.27
2022-08-07T13:24:54.032Z,53.06
2022-08-07T13:26:15.756Z,52.97
2022-08-07T13:28:10.768Z,52.78
2022-08-07T13:29:47.696Z,52.71
2022-08-07T13:31:06.388Z,52.63
2022-08-07T13:32:51.336Z,52.47
2022-08-07T13:34:33.684Z,52.50
2022-08-07T13:36:05.521Z,52.70
2022-08-07T13:37:24.837Z,52.69
2022-08-07T13:38:44.764Z,52.58
2022-08-07T13:40:35.013Z,52.63
2022-08-07T13:41:54.643Z,52.47
2022-08-07T13:43:11.705Z,52.26
2022-08-07T13:44:34.674Z,51.86
2022-08-07T13:46:11.682Z,51.35
2022-08-07T13:47:15.059Z,51.05
2022-08-07T13:48:34.909Z,50.76
2022-08-07T13:50:33.459Z,50.47
2022-08-07T13:51:26.984Z,50.10
2022-08-07T13:52:41.198Z,49.79
2022-08-07T13:54:00.537Z,49.39
2022-08-07T13:55:19.307Z,49.06
2022-08-07T13:56:35.357Z,48.20
2022-08-07T13:58:01.772Z,47.55
2022-08-07T13:59:27.097Z,47.28
2022-08-07T14:00:39.484Z,46.97
2022-08-07T14:02:10.202Z,46.78
2022-08-07T14:03:30.041Z,46.43
2022-08-07T14:04:54.841Z,46.08
2022-08-07T14:06:02.629Z,45.88
2022-08-07T14:07:10.468Z,45.71
2022-08-07T14:08:16.716Z,45.42
2022-08-07T14:10:02.166Z,45.53
2022-08-07T14:11:14.979Z,45.36
2022-08-07T14:12:41.655Z,45.20
2022-08-07T14:13:57.251Z,44.73
2022-08-07T14:15:06.370Z,44.89
2022-08-07T14:16:16.739Z,44.82
2022-08-07T14:17:51.483Z,44.65
2022-08-07T14:18:57.280Z,44.81
2022-08-07T14:20:40.817Z,44.94
2022-08-07T14:22:03.462Z,45.01
2022-08-07T14:23:31.566Z,45.23
2022-08-07T14:24:54.499Z,45.05
2022-08-07T14:26:06.307Z,44.34
2022-08-07T14:28:10.484Z,43.83
2022-08-07T14:28:55.961Z,42.32
2022-08-07T14:30:32.525Z,41.73
2022-08-07T14:33:08.498Z,41.29
2022-08-07T14:34:20.316Z,40.48
2022-08-07T14:35:44.499Z,39.93
2022-08-07T14:36:56.630Z,38.13
2022-08-07T14:38:06.022Z,37.51
2022-08-07T14:40:15.608Z,36.86
2022-08-07T14:40:43.303Z,36.39
2022-08-07T14:42:18.812Z,36.36
2022-08-07T14:45:22.502Z,36.18
2022-08-07T14:46:31.999Z,35.92
2022-08-07T14:47:41.006Z,35.83
2022-08-07T14:48:52.110Z,35.67
2022-08-07T14:50:00.209Z,35.42
2022-08-07T14:51:15.736Z,35.16
2022-08-07T14:52:27.325Z,34.79
2022-08-07T14:54:05.764Z,34.35
2022-08-07T14:55:17.720Z,34.31
2022-08-07T14:56:29.891Z,33.59
2022-08-07T14:59:14.050Z,32.98
2022-08-07T15:00:37.500Z,32.72
2022-08-07T15:04:41.548Z,31.68
2022-08-07T15:06:04.080Z,31.42
2022-08-07T15:07:21.426Z,30.82
2022-08-07T15:08:35.440Z,31.12
2022-08-07T15:10:04.697Z,30.74
2022-08-07T15:11:15.060Z,30.60
2022-08-07T15:12:42.182Z,30.40
2022-08-07T15:15:42.138Z,30.36
2022-08-07T15:16:56.344Z,29.61
2022-08-07T15:19:01.526Z,29.26
2022-08-07T15:20:33.386Z,28.94
2022-08-07T15:22:04.653Z,28.48
2022-08-07T15:25:02.650Z,27.88
2022-08-07T15:26:34.141Z,27.35
2022-08-07T15:30:04.746Z,26.96
2022-08-07T15:31:04.485Z,26.58
2022-08-07T15:32:13.591Z,25.98
2022-08-07T15:33:20.777Z,25.88
2022-08-07T15:34:50.693Z,25.28
2022-08-07T15:36:09.797Z,24.34
2022-08-07T15:37:27.359Z,24.12
2022-08-07T15:38:51.391Z,23.00
2022-08-07T15:40:11.285Z,23.28
2022-08-07T15:42:48.377Z,23.01
2022-08-07T15:44:02.441Z,22.08
2022-08-07T15:45:11.729Z,21.94
2022-08-07T15:46:31.699Z,22.06
2022-08-07T15:48:01.406Z,21.87
2022-08-07T15:49:15.332Z,21.55
2022-08-07T15:50:38.024Z,21.24
2022-08-07T15:53:14.322Z,20.21
2022-08-07T15:54:22.026Z,19.99
2022-08-07T15:55:58.773Z,20.38
2022-08-07T15:57:01.255Z,20.36
2022-08-07T15:58:10.463Z,19.52
2022-08-07T15:59:40.032Z,19.62
2022-08-07T16:00:53.388Z,19.84
2022-08-07T16:02:02.801Z,19.39
2022-08-07T16:03:46.420Z,18.67
2022-08-07T16:05:01.045Z,18.39
2022-08-07T16:06:09.589Z,18.66
2022-08-07T16:08:30.695Z,18.84
2022-08-07T16:08:46.437Z,18.59
2022-08-07T16:10:15.022Z,18.25
2022-08-07T16:12:04.122Z,17.71
2022-08-07T16:13:58.489Z,17.87
2022-08-07T16:15:57.561Z,17.76
2022-08-07T16:18:01.788Z,17.78
2022-08-07T16:19:59.200Z,18.52
2022-08-07T16:22:02.402Z,18.56
2022-08-07T16:23:09.788Z,18.59
2022-08-07T16:24:52.633Z,18.29
2022-08-07T16:26:14.428Z,17.95
2022-08-07T16:27:59.669Z,17.90
2022-08-07T16:30:11.777Z,17.97
2022-08-07T16:31:04.259Z,18.16
2022-08-07T16:32:34.544Z,17.80
2022-08-07T16:34:03.081Z,17.64
2022-08-07T16:35:52.377Z,17.72
2022-08-07T16:38:06.628Z,17.79
2022-08-07T16:39:52.759Z,17.68
2022-08-07T16:41:22.274Z,17.50
2022-08-07T16:43:06.279Z,17.55
2022-08-07T16:44:47.354Z,17.57
2022-08-07T16:48:23.180Z,16.92
2022-08-07T16:50:37.216Z,17.16
2022-08-07T16:52:49.324Z,17.27
2022-08-07T16:54:06.708Z,17.30
2022-08-07T16:55:28.686Z,17.12
2022-08-07T16:58:03.041Z,16.56
2022-08-07T16:59:46.992Z,16.33
2022-08-07T17:01:07.811Z,16.87
2022-08-07T17:02:51.797Z,16.79
2022-08-07T17:04:57.460Z,17.06
2022-08-07T17:06:30.345Z,17.73
2022-08-07T17:07:57.904Z,17.91
2022-08-07T17:10:07.228Z,18.09
2022-08-07T17:10:55.682Z,18.39
2022-08-07T17:12:34.077Z,18.52
2022-08-07T17:14:22.052Z,18.50
2022-08-07T17:16:01.972Z,18.70
2022-08-07T17:17:16.730Z,18.65
2022-08-07T17:18:49.987Z,18.46
2022-08-07T17:20:20.682Z,18.15
2022-08-07T17:21:51.524Z,18.14
2022-08-07T17:23:12.976Z,17.88
2022-08-07T17:24:25.972Z,17.75
2022-08-07T17:26:23.381Z,17.70
2022-08-07T17:27:52.577Z,17.73
2022-08-07T17:30:14.010Z,17.81
2022-08-07T17:31:15.590Z,17.98
2022-08-07T17:32:35.234Z,17.28
2022-08-07T17:34:18.337Z,17.25
2022-08-07T17:36:01.365Z,17.68
2022-08-07T17:38:09.846Z,17.67
2022-08-07T17:39:57.698Z,17.38
2022-08-07T17:42:04.182Z,17.16
2022-08-07T17:43:07.330Z,16.71
2022-08-07T17:44:45.498Z,16.57
2022-08-07T17:46:55.466Z,16.17
2022-08-07T17:48:13.247Z,16.18
2022-08-07T17:49:59.180Z,16.40
2022-08-07T17:51:23.270Z,16.66
2022-08-07T17:52:39.713Z,16.20
2022-08-07T17:54:29.846Z,16.03
2022-08-07T17:56:06.896Z,16.26
2022-08-07T17:57:21.291Z,16.43
2022-08-07T17:58:34.522Z,16.66
2022-08-07T17:59:46.693Z,16.06
2022-08-07T18:01:01.427Z,15.55
2022-08-07T18:02:14.978Z,15.53
2022-08-07T18:04:16.131Z,15.38
2022-08-07T18:06:01.605Z,15.69
2022-08-07T18:07:21.005Z,15.41
2022-08-07T18:09:00.270Z,14.73
2022-08-07T18:12:17.690Z,14.85
2022-08-07T18:12:37.085Z,14.35
2022-08-07T18:14:03.167Z,14.27
2022-08-07T18:15:32.814Z,14.10
2022-08-07T18:17:10.825Z,14.10
2022-08-07T18:18:46.130Z,13.30
2022-08-07T18:21:08.366Z,13.06
2022-08-07T18:21:58.099Z,13.08
2022-08-07T18:23:42.163Z,12.80
2022-08-07T18:24:57.012Z,11.97
2022-08-07T18:26:15.143Z,11.51
2022-08-07T18:27:51.151Z,11.68
2022-08-07T18:30:05.886Z,11.52
2022-08-07T18:31:03.063Z,11.41
2022-08-07T18:32:47.825Z,11.23
2022-08-07T18:35:00.901Z,10.63
2022-08-07T18:36:54.160Z,10.98
2022-08-07T18:38:58.642Z,10.87
2022-08-07T18:40:18.256Z,10.60
2022-08-07T18:42:13.374Z,10.16
2022-08-07T18:43:42.591Z,10.27